Time;durP1;ratioP1;P1;durP2;ratioP2;P2;SDS_P1;SDS_P2;PMS_P1;PMS_P2;Temp;Humidity;BMP_temperature;BMP_pressure;BME280_temperature;BME280_humidity;BME280_pressure;Samples;Min_cycle;Max_cycle;Signal;HPM_P1;HPM_P2
2022/05/04 00:01:03;;;;;;;7.80;3.13;;;11.90;99.90;;;;;;5052730;28;20191;-73
2022/05/04 00:03:28;;;;;;;4.03;3.07;;;11.80;99.90;;;;;;5052746;28;20203;-72
2022/05/04 00:05:54;;;;;;;3.10;2.73;;;11.80;99.90;;;;;;5052489;28;20166;-71
2022/05/04 00:08:19;;;;;;;3.30;2.57;;;11.70;99.90;;;;;;5052740;28;20206;-71
2022/05/04 00:10:44;;;;;;;3.10;2.57;;;11.70;99.90;;;;;;5052389;28;20683;-71
2022/05/04 00:13:12;;;;;;;4.57;3.57;;;11.70;99.90;;;;;;5052196;28;20218;-72
2022/05/04 00:15:37;;;;;;;5.30;3.00;;;11.60;99.90;;;;;;5051987;28;20222;-72
2022/05/04 00:18:03;;;;;;;3.00;2.60;;;11.50;99.90;;;;;;5052347;28;20547;-72
2022/05/04 00:20:29;;;;;;;4.70;4.30;;;11.50;99.90;;;;;;5052173;28;20198;-72
2022/05/04 00:22:55;;;;;;;3.40;2.33;;;11.50;99.90;;;;;;5052237;28;20413;-72
2022/05/04 00:25:20;;;;;;;4.80;3.50;;;11.40;99.90;;;;;;5052079;28;20198;-71
2022/05/04 00:27:46;;;;;;;3.80;3.30;;;11.40;99.90;;;;;;5051146;28;20525;-71
2022/05/04 00:30:11;;;;;;;3.83;3.17;;;11.40;99.90;;;;;;5051826;28;20226;-71
2022/05/04 00:32:37;;;;;;;3.70;3.40;;;11.30;99.90;;;;;;5052097;28;20186;-71
2022/05/04 00:35:03;;;;;;;4.00;2.80;;;11.30;99.90;;;;;;5051658;28;20580;-71
2022/05/04 00:37:28;;;;;;;3.53;3.23;;;11.30;99.90;;;;;;5051947;28;20560;-71
2022/05/04 00:39:55;;;;;;;3.27;2.93;;;11.30;99.90;;;;;;5051909;28;20178;-72
2022/05/04 00:42:21;;;;;;;4.80;2.97;;;11.40;99.90;;;;;;5052354;28;20182;-72
2022/05/04 00:44:49;;;;;;;4.93;4.10;;;11.40;99.90;;;;;;5051784;28;20402;-72
2022/05/04 00:47:16;;;;;;;3.10;2.47;;;11.40;99.90;;;;;;5051952;28;20496;-71
2022/05/04 00:49:44;;;;;;;3.57;3.27;;;11.40;99.90;;;;;;5051754;28;20410;-71
2022/05/04 00:52:13;;;;;;;3.60;2.70;;;11.40;99.90;;;;;;5051230;28;20439;-71
2022/05/04 00:54:42;;;;;;;3.20;2.90;;;11.30;99.90;;;;;;5051559;28;20823;-71
2022/05/04 00:57:08;;;;;;;5.80;3.27;;;11.40;99.90;;;;;;5051611;28;20895;-71
2022/05/04 00:59:36;;;;;;;2.80;2.40;;;11.40;99.90;;;;;;5051582;28;20410;-71
2022/05/04 01:02:02;;;;;;;3.20;2.83;;;11.30;99.90;;;;;;5051265;28;20201;-72
2022/05/04 01:04:28;;;;;;;4.40;3.13;;;11.30;99.90;;;;;;5051902;28;20413;-72
2022/05/04 01:06:53;;;;;;;3.33;3.03;;;11.20;99.90;;;;;;5051475;28;20249;-72
2022/05/04 01:09:19;;;;;;;4.60;3.17;;;11.20;99.90;;;;;;5051500;28;20270;-72
2022/05/04 01:11:46;;;;;;;3.13;2.90;;;11.20;99.90;;;;;;5051188;28;20320;-71
2022/05/04 01:14:12;;;;;;;7.00;2.97;;;11.20;99.90;;;;;;5051106;28;20217;-71
2022/05/04 01:16:41;;;;;;;5.73;3.47;;;11.10;99.90;;;;;;5051242;28;20406;-71
2022/05/04 01:19:07;;;;;;;3.80;3.33;;;11.10;99.90;;;;;;5051106;28;20832;-71
2022/05/04 01:21:34;;;;;;;4.60;4.00;;;11.00;99.90;;;;;;5050786;28;20974;-72
2022/05/04 01:24:00;;;;;;;7.07;3.60;;;11.00;99.90;;;;;;5051175;28;20394;-71
2022/05/04 01:26:26;;;;;;;3.33;2.90;;;11.00;99.90;;;;;;5051045;28;20480;-72
2022/05/04 01:28:52;;;;;;;3.50;3.10;;;11.00;99.90;;;;;;5052233;28;20500;-72
2022/05/04 01:31:17;;;;;;;3.93;2.90;;;10.90;99.90;;;;;;5033992;28;20740;-71
2022/05/04 01:33:43;;;;;;;6.27;4.10;;;10.90;99.90;;;;;;5051186;28;20236;-71
2022/05/04 01:36:08;;;;;;;6.27;4.40;;;10.90;99.90;;;;;;5050972;28;20207;-71
2022/05/04 01:38:34;;;;;;;4.00;3.60;;;10.80;99.90;;;;;;5052554;28;20540;-71
2022/05/04 01:41:00;;;;;;;4.70;3.43;;;10.80;99.90;;;;;;5057400;28;20228;-71
2022/05/04 01:43:26;;;;;;;4.13;3.33;;;10.80;99.90;;;;;;5055938;28;20896;-71
2022/05/04 01:45:52;;;;;;;2.80;2.53;;;10.70;99.90;;;;;;5057385;28;20697;-71
2022/05/04 01:48:17;;;;;;;4.07;3.03;;;10.70;99.90;;;;;;5057411;28;20178;-71
2022/05/04 01:50:43;;;;;;;4.43;2.80;;;10.70;99.90;;;;;;5057243;28;20665;-71
2022/05/04 01:53:08;;;;;;;3.77;3.00;;;10.60;99.90;;;;;;5057232;28;20177;-71
2022/05/04 01:55:34;;;;;;;3.27;2.87;;;10.50;99.90;;;;;;5057168;28;20702;-72
2022/05/04 01:58:01;;;;;;;4.03;3.10;;;10.50;99.90;;;;;;5057270;28;20699;-72
2022/05/04 02:00:27;;;;;;;5.50;3.60;;;10.50;99.90;;;;;;5057507;28;20561;-71
2022/05/04 02:02:53;;;;;;;4.77;3.40;;;10.50;99.90;;;;;;5057646;28;20408;-71
2022/05/04 02:05:23;;;;;;;4.33;3.80;;;10.40;99.90;;;;;;5056973;28;20252;-71
2022/05/04 02:07:49;;;;;;;3.50;3.20;;;10.40;99.90;;;;;;5057228;28;20474;-71
2022/05/04 02:10:15;;;;;;;5.30;3.23;;;10.40;99.90;;;;;;5057262;28;20420;-72
2022/05/04 02:12:41;;;;;;;4.40;3.07;;;10.30;99.90;;;;;;5057074;28;20171;-72
2022/05/04 02:15:08;;;;;;;4.10;3.33;;;10.20;99.90;;;;;;5057323;28;20449;-71
2022/05/04 02:17:35;;;;;;;4.57;3.07;;;10.20;99.90;;;;;;5057277;28;20433;-72
2022/05/04 02:20:01;;;;;;;4.60;3.43;;;10.10;99.90;;;;;;5056906;28;20410;-72
2022/05/04 02:22:27;;;;;;;3.80;3.27;;;10.10;99.90;;;;;;5057180;28;20412;-72
2022/05/04 02:24:52;;;;;;;5.03;3.70;;;10.00;99.90;;;;;;5057091;28;20907;-71
2022/05/04 02:27:18;;;;;;;9.23;3.47;;;10.00;99.90;;;;;;5057037;28;20439;-71
2022/05/04 02:29:43;;;;;;;6.23;3.20;;;10.00;99.90;;;;;;5057070;28;20651;-71
2022/05/04 02:32:09;;;;;;;4.00;3.60;;;9.80;99.90;;;;;;5056896;28;20196;-72
2022/05/04 02:37:54;;;;;;;5.10;4.70;;;9.80;99.90;;;;;;5057009;28;20200;-71
2022/05/04 02:40:05;;;;;;;4.57;3.87;;;9.80;99.90;;;;;;5057087;28;20717;-72
2022/05/04 02:42:31;;;;;;;4.40;3.30;;;9.70;99.90;;;;;;5057195;28;20437;-71
2022/05/04 02:44:56;;;;;;;6.20;4.47;;;9.60;99.90;;;;;;5056821;28;20402;-71
2022/05/04 02:47:22;;;;;;;4.77;3.50;;;9.60;99.90;;;;;;5057113;28;20187;-71
2022/05/04 02:49:47;;;;;;;4.93;4.00;;;9.60;99.90;;;;;;5056383;28;20632;-72
2022/05/04 02:52:13;;;;;;;4.23;3.10;;;9.50;99.90;;;;;;5053351;28;20283;-72
2022/05/04 02:54:38;;;;;;;5.47;3.60;;;9.40;99.90;;;;;;5053493;28;20195;-72
2022/05/04 02:57:04;;;;;;;4.63;3.93;;;9.40;99.90;;;;;;5053761;28;20238;-72
2022/05/04 02:59:30;;;;;;;6.77;3.30;;;9.40;99.90;;;;;;5054101;28;20218;-72
2022/05/04 03:04:40;;;;;;;4.30;3.90;;;9.40;99.90;;;;;;5053821;28;20402;-73
2022/05/04 03:07:05;;;;;;;4.50;3.53;;;9.40;99.90;;;;;;5053640;28;20409;-72
2022/05/04 03:09:30;;;;;;;4.70;4.10;;;9.30;99.90;;;;;;5053438;28;20194;-72
2022/05/04 03:11:56;;;;;;;4.50;3.73;;;9.30;99.90;;;;;;5053545;28;20219;-72
2022/05/04 03:14:27;;;;;;;5.47;3.47;;;9.30;99.90;;;;;;5053309;28;20202;-72
2022/05/04 03:16:54;;;;;;;4.50;3.50;;;9.30;99.90;;;;;;5053755;28;20177;-72
2022/05/04 03:19:23;;;;;;;5.83;4.40;;;9.30;99.90;;;;;;5053723;28;20497;-72
2022/05/04 03:21:50;;;;;;;5.20;4.20;;;9.30;99.90;;;;;;5053107;28;20512;-72
2022/05/04 03:24:16;;;;;;;4.53;4.10;;;9.40;99.90;;;;;;5053639;28;20984;-72
2022/05/04 03:26:42;;;;;;;4.63;4.03;;;9.40;99.90;;;;;;5053023;28;20414;-73
2022/05/04 03:29:08;;;;;;;4.00;3.43;;;9.40;99.90;;;;;;5053431;28;20406;-72
2022/05/04 03:31:33;;;;;;;5.63;4.07;;;9.40;99.90;;;;;;5053122;28;20191;-72
2022/05/04 03:33:59;;;;;;;5.20;4.10;;;9.40;99.90;;;;;;5053316;28;20494;-72
2022/05/04 03:36:25;;;;;;;4.20;3.60;;;9.50;99.90;;;;;;5052866;28;20168;-71
2022/05/04 03:38:51;;;;;;;4.53;4.10;;;9.50;99.90;;;;;;5053040;28;20232;-71
2022/05/04 03:41:17;;;;;;;4.80;4.33;;;9.50;99.90;;;;;;5052724;28;20430;-71
2022/05/04 03:43:42;;;;;;;3.80;3.33;;;9.40;99.90;;;;;;5052922;28;20175;-72
2022/05/04 03:46:15;;;;;;;5.83;3.50;;;9.50;99.90;;;;;;5053030;28;20175;-71
2022/05/04 03:48:42;;;;;;;5.70;3.33;;;9.40;99.90;;;;;;5052857;28;20174;-71
2022/05/04 03:51:09;;;;;;;4.33;3.40;;;9.50;99.90;;;;;;5035324;28;20433;-71
2022/05/04 03:53:34;;;;;;;5.67;3.50;;;9.50;99.90;;;;;;5053125;28;20773;-71
2022/05/04 03:56:00;;;;;;;5.47;3.90;;;9.50;99.90;;;;;;5052755;28;20559;-71
2022/05/04 03:58:25;;;;;;;4.80;3.30;;;9.50;99.90;;;;;;5053008;28;20171;-71
2022/05/04 04:00:51;;;;;;;3.90;3.43;;;9.50;99.90;;;;;;5053105;28;20189;-71
2022/05/04 04:03:16;;;;;;;5.03;3.77;;;9.60;99.90;;;;;;5052770;28;20205;-70
2022/05/04 04:05:41;;;;;;;4.10;3.53;;;9.60;99.90;;;;;;5053111;28;20203;-70
2022/05/04 04:08:07;;;;;;;6.87;4.20;;;9.60;99.90;;;;;;5052926;28;20170;-71
2022/05/04 04:10:32;;;;;;;6.90;3.10;;;9.70;99.90;;;;;;5052722;28;20228;-71
2022/05/04 04:12:58;;;;;;;4.90;3.70;;;9.70;99.90;;;;;;5052925;28;20178;-71
2022/05/04 04:15:23;;;;;;;4.53;4.13;;;9.80;99.90;;;;;;5052747;28;20229;-71
2022/05/04 04:17:49;;;;;;;5.43;4.00;;;9.90;99.90;;;;;;5052757;28;20186;-72
2022/05/04 04:22:58;;;;;;;5.03;3.47;;;10.00;99.90;;;;;;5052932;28;20180;-71
2022/05/04 04:25:23;;;;;;;5.23;4.10;;;10.20;99.90;;;;;;5052490;28;20407;-71
2022/05/04 04:27:49;;;;;;;5.40;3.87;;;10.30;99.90;;;;;;5052576;28;20662;-72
2022/05/04 04:30:15;;;;;;;5.07;3.50;;;10.50;99.90;;;;;;5052132;28;20621;-72
2022/05/04 04:32:40;;;;;;;5.33;4.10;;;10.90;99.90;;;;;;5052396;28;20179;-69
2022/05/04 04:35:06;;;;;;;5.93;4.30;;;10.90;99.90;;;;;;5052490;28;20805;-71
2022/05/04 04:37:32;;;;;;;5.80;4.20;;;10.90;99.90;;;;;;5052399;28;20173;-71
2022/05/04 04:39:57;;;;;;;3.83;3.23;;;11.20;99.90;;;;;;5052211;28;20409;-70
2022/05/04 04:42:23;;;;;;;7.10;4.43;;;11.40;99.90;;;;;;5052251;28;20166;-72
2022/05/04 04:44:49;;;;;;;6.43;4.40;;;11.70;99.90;;;;;;5052142;28;20159;-70
2022/05/04 04:47:14;;;;;;;9.37;4.33;;;11.90;99.90;;;;;;5052126;28;20874;-71
2022/05/04 04:49:40;;;;;;;7.17;4.47;;;11.80;99.90;;;;;;5052193;28;20175;-74
2022/05/04 04:52:05;;;;;;;4.07;3.67;;;11.70;99.90;;;;;;5051877;28;20273;-70
2022/05/04 04:54:31;;;;;;;3.77;3.43;;;11.60;99.90;;;;;;5056844;28;20198;-70
2022/05/04 04:56:57;;;;;;;6.03;5.00;;;11.70;99.90;;;;;;5059949;28;20167;-71
2022/05/04 04:59:22;;;;;;;7.10;4.17;;;11.70;99.90;;;;;;5062333;28;20628;-70
2022/05/04 05:01:48;;;;;;;4.90;4.20;;;11.60;99.90;;;;;;5078183;28;20570;-71
2022/05/04 05:04:13;;;;;;;4.67;4.23;;;11.60;99.90;;;;;;5071604;28;20165;-70
2022/05/04 05:06:38;;;;;;;6.27;4.60;;;11.80;99.90;;;;;;5071603;28;20703;-71
2022/05/04 05:09:04;;;;;;;7.13;5.83;;;11.70;99.90;;;;;;5071694;28;20178;-71
2022/05/04 05:11:29;;;;;;;4.83;4.20;;;11.70;99.90;;;;;;5069609;28;20186;-72
2022/05/04 05:16:39;;;;;;;5.10;4.50;;;11.70;99.90;;;;;;5071590;28;20383;-71
2022/05/04 05:19:05;;;;;;;11.57;5.80;;;11.80;99.90;;;;;;5071535;28;21034;-71
2022/05/04 05:21:30;;;;;;;7.67;4.90;;;11.90;99.90;;;;;;5071694;28;20229;-71
2022/05/04 05:23:55;;;;;;;7.77;5.60;;;12.10;99.90;;;;;;5071495;28;20254;-71
2022/05/04 05:26:21;;;;;;;7.03;4.80;;;12.30;99.90;;;;;;5071485;28;20179;-71
2022/05/04 05:28:47;;;;;;;5.67;4.77;;;12.40;99.90;;;;;;5069448;28;20178;-70
2022/05/04 05:31:13;;;;;;;5.00;4.60;;;12.20;99.90;;;;;;5071518;28;20217;-70
2022/05/04 05:33:39;;;;;;;5.43;4.40;;;12.30;99.90;;;;;;5071454;28;20185;-71
2022/05/04 05:36:05;;;;;;;8.03;5.40;;;12.60;99.90;;;;;;5071499;28;20465;-71
2022/05/04 05:38:30;;;;;;;6.70;5.23;;;12.60;99.90;;;;;;5071351;28;20172;-71
2022/05/04 05:40:56;;;;;;;5.37;4.10;;;12.50;99.90;;;;;;5071472;28;20511;-72
2022/05/04 05:43:21;;;;;;;8.30;5.20;;;12.80;99.90;;;;;;5071519;28;20174;-71
2022/05/04 05:45:47;;;;;;;6.43;4.13;;;12.90;99.90;;;;;;5071424;28;20166;-72
2022/05/04 05:48:12;;;;;;;6.50;5.03;;;12.90;99.90;;;;;;5071406;28;20173;-73
2022/05/04 05:50:38;;;;;;;5.33;4.83;;;12.90;99.90;;;;;;5071314;28;20534;-73
2022/05/04 05:53:03;;;;;;;9.73;5.47;;;12.90;99.90;;;;;;5071478;28;20235;-72
2022/05/04 05:55:30;;;;;;;8.30;5.00;;;13.00;99.90;;;;;;5071181;28;20198;-72
2022/05/04 05:57:56;;;;;;;5.37;4.83;;;13.20;99.90;;;;;;5071940;28;20181;-70
2022/05/04 06:00:22;;;;;;;6.83;5.10;;;13.30;99.90;;;;;;5074730;28;20680;-72
2022/05/04 06:02:47;;;;;;;8.80;5.47;;;13.40;99.90;;;;;;5072296;28;20414;-72
2022/05/04 06:05:13;;;;;;;9.23;6.17;;;13.70;99.90;;;;;;5059254;28;20217;-71
2022/05/04 06:07:39;;;;;;;4.57;3.47;;;13.70;99.90;;;;;;5051617;28;20557;-71
2022/05/04 06:10:05;;;;;;;5.87;4.53;;;13.70;99.90;;;;;;5051336;28;20171;-71
2022/05/04 06:12:30;;;;;;;5.20;4.60;;;13.90;99.90;;;;;;5051579;28;20195;-72
2022/05/04 06:14:56;;;;;;;5.53;4.40;;;13.90;99.90;;;;;;5051366;28;20539;-72
2022/05/04 06:17:21;;;;;;;6.97;4.33;;;14.10;99.90;;;;;;5051588;28;20179;-72
2022/05/04 06:19:47;;;;;;;6.73;4.63;;;14.30;99.90;;;;;;5051227;28;20203;-72
2022/05/04 06:22:13;;;;;;;7.17;5.27;;;14.60;99.90;;;;;;5050904;28;20223;-71
2022/05/04 06:24:38;;;;;;;6.07;5.07;;;14.90;99.90;;;;;;5051101;28;20258;-71
2022/05/04 06:27:04;;;;;;;5.27;4.77;;;15.20;99.90;;;;;;5054091;28;20178;-70
2022/05/04 06:35:03;;;;;;;5.70;3.83;;;14.80;99.90;;;;;;5074700;28;20507;-72
2022/05/04 06:37:28;;;;;;;5.80;4.47;;;15.10;99.90;;;;;;5074313;28;20906;-71
2022/05/04 06:39:54;;;;;;;6.80;5.00;;;15.00;99.90;;;;;;5074222;28;20526;-71
2022/05/04 06:42:19;;;;;;;5.17;4.57;;;15.30;99.90;;;;;;5074331;28;20187;-71
2022/05/04 06:44:45;;;;;;;5.73;4.40;;;15.10;99.90;;;;;;5074177;28;20266;-71
2022/05/04 06:47:10;;;;;;;7.83;5.00;;;15.00;99.90;;;;;;5073917;28;20175;-71
2022/05/04 06:49:36;;;;;;;5.83;4.63;;;15.00;99.90;;;;;;5074375;28;20257;-71
2022/05/04 06:52:02;;;;;;;5.33;4.20;;;15.30;99.90;;;;;;5074020;28;20199;-70
2022/05/04 06:54:27;;;;;;;7.20;5.20;;;15.00;99.90;;;;;;5074199;28;20210;-70
2022/05/04 06:56:52;;;;;;;8.17;4.50;;;15.00;99.90;;;;;;5074116;28;20190;-70
2022/05/04 06:59:18;;;;;;;8.77;3.60;;;15.00;99.90;;;;;;5074179;28;20164;-71
2022/05/04 07:01:44;;;;;;;6.93;3.90;;;15.00;99.90;;;;;;5073978;28;20218;-71
2022/05/04 07:04:09;;;;;;;7.90;3.97;;;15.40;99.90;;;;;;5074524;28;20164;-71
2022/05/04 07:06:35;;;;;;;5.10;4.10;;;15.70;99.90;;;;;;5074273;28;20427;-71
2022/05/04 07:09:00;;;;;;;5.40;3.60;;;15.40;99.90;;;;;;5073876;28;20175;-72
2022/05/04 07:11:26;;;;;;;4.03;3.53;;;15.40;99.90;;;;;;5072472;28;20218;-71
2022/05/04 07:13:51;;;;;;;5.90;3.83;;;15.30;99.90;;;;;;5073416;28;20669;-71
2022/05/04 07:16:17;;;;;;;3.60;3.30;;;15.40;99.90;;;;;;5073635;28;20195;-71
2022/05/04 07:18:42;;;;;;;3.60;3.30;;;15.40;99.90;;;;;;5073807;28;20171;-71
2022/05/04 07:21:07;;;;;;;3.20;2.80;;;15.70;99.90;;;;;;5073289;28;20223;-72
2022/05/04 07:23:33;;;;;;;2.90;2.70;;;16.10;99.90;;;;;;5073662;28;20203;-72
2022/05/04 07:25:58;;;;;;;6.53;3.97;;;15.70;99.90;;;;;;5073567;28;20576;-71
2022/05/04 07:28:26;;;;;;;5.20;4.70;;;15.90;99.90;;;;;;5073148;28;20267;-69
2022/05/04 07:30:52;;;;;;;5.07;3.90;;;16.20;99.90;;;;;;5073329;28;20202;-71
2022/05/04 07:33:17;;;;;;;5.60;4.77;;;16.00;99.90;;;;;;5073256;28;20959;-69
2022/05/04 07:35:43;;;;;;;5.83;4.57;;;16.50;99.90;;;;;;5072946;28;20860;-70
2022/05/04 07:38:08;;;;;;;8.70;5.23;;;17.00;99.90;;;;;;5072427;28;20173;-68
2022/05/04 07:43:18;;;;;;;5.50;3.97;;;16.90;99.90;;;;;;5072567;28;20315;-69
2022/05/04 07:45:44;;;;;;;5.13;4.53;;;17.20;99.90;;;;;;5072820;28;20842;-70
2022/05/04 07:48:09;;;;;;;6.70;4.50;;;18.00;99.90;;;;;;5073069;28;20173;-70
2022/05/04 07:50:35;;;;;;;6.73;3.90;;;18.20;99.90;;;;;;5072911;28;20431;-70
2022/05/04 07:53:02;;;;;;;4.60;3.63;;;18.20;99.90;;;;;;5092336;28;20179;-72
2022/05/04 07:55:27;;;;;;;5.03;3.80;;;19.70;99.90;;;;;;5083444;28;20224;-69
2022/05/04 07:57:53;;;;;;;4.80;4.10;;;18.60;99.90;;;;;;5072821;28;20435;-69
2022/05/04 08:05:46;;;;;;;6.10;5.40;;;19.10;99.90;;;;;;5072604;28;20488;-70
2022/05/04 08:08:12;;;;;;;4.37;3.97;;;20.40;99.20;;;;;;5072653;28;20457;-70
2022/05/04 08:10:37;;;;;;;3.87;3.57;;;19.50;98.60;;;;;;5072784;28;20200;-69
2022/05/04 08:13:03;;;;;;;6.67;4.60;;;19.00;99.90;;;;;;5072304;28;20715;-67
2022/05/04 08:15:30;;;;;;;4.90;3.97;;;19.70;99.90;;;;;;5072414;28;20283;-68
2022/05/04 08:17:57;;;;;;;7.33;5.20;;;19.40;98.70;;;;;;5072791;28;20219;-70
2022/05/04 08:20:24;;;;;;;4.67;4.20;;;20.40;98.00;;;;;;5072813;28;20448;-70
2022/05/04 08:22:50;;;;;;;6.30;4.67;;;20.40;97.30;;;;;;5072455;28;20803;-69
2022/05/04 08:25:17;;;;;;;4.10;3.70;;;19.60;97.50;;;;;;5072437;28;20451;-68
2022/05/04 08:27:43;;;;;;;5.47;4.17;;;19.50;97.50;;;;;;5072706;28;20174;-70
2022/05/04 08:30:09;;;;;;;3.73;3.33;;;19.50;97.40;;;;;;5072648;28;20904;-69
2022/05/04 08:32:34;;;;;;;5.03;4.17;;;19.60;98.10;;;;;;5072275;28;20401;-68
2022/05/04 08:35:00;;;;;;;4.87;3.90;;;19.50;96.50;;;;;;5072205;28;20201;-68
2022/05/04 08:37:29;;;;;;;3.43;2.93;;;19.60;95.90;;;;;;5072623;28;20166;-69
2022/05/04 08:39:58;;;;;;;5.43;3.87;;;19.60;94.90;;;;;;5072035;28;20438;-69
2022/05/04 08:42:24;;;;;;;4.67;3.63;;;20.70;94.70;;;;;;5063783;28;20404;-68
2022/05/04 08:44:55;;;;;;;5.90;3.67;;;21.10;93.00;;;;;;5071903;28;20404;-69
2022/05/04 08:47:22;;;;;;;4.10;3.40;;;19.40;94.80;;;;;;5072126;28;20410;-71
2022/05/04 08:49:48;;;;;;;4.50;3.80;;;19.40;95.30;;;;;;5071287;28;20420;-69
2022/05/04 08:52:15;;;;;;;3.90;3.07;;;20.40;94.90;;;;;;5071886;28;20432;-70
2022/05/04 08:54:42;;;;;;;5.03;3.80;;;20.40;95.20;;;;;;5071584;28;20965;-69
2022/05/04 08:57:08;;;;;;;4.03;3.30;;;21.10;94.60;;;;;;5071757;28;20459;-67
2022/05/04 08:59:34;;;;;;;4.83;4.33;;;22.60;91.90;;;;;;5071694;28;20400;-69
2022/05/04 09:01:59;;;;;;;5.07;4.20;;;21.70;91.00;;;;;;5067881;28;20182;-70
2022/05/04 09:04:25;;;;;;;4.33;3.93;;;21.20;91.10;;;;;;5051537;28;20748;-68
2022/05/04 09:06:50;;;;;;;4.00;3.70;;;21.50;91.10;;;;;;5051882;28;20202;-68
2022/05/04 09:09:16;;;;;;;5.00;4.40;;;20.20;92.00;;;;;;5051895;28;20226;-69
2022/05/04 09:11:43;;;;;;;4.40;4.00;;;19.60;93.70;;;;;;5051567;28;20192;-70
2022/05/04 09:14:13;;;;;;;5.67;4.30;;;19.60;93.80;;;;;;5051607;28;20649;-68
2022/05/04 09:16:39;;;;;;;4.90;4.40;;;19.50;93.00;;;;;;5051558;28;20408;-69
2022/05/04 09:19:07;;;;;;;4.20;3.77;;;19.60;93.40;;;;;;5051544;28;21168;-69
2022/05/04 09:21:32;;;;;;;5.93;5.30;;;20.10;93.50;;;;;;5051387;28;20463;-69
2022/05/04 09:23:58;;;;;;;4.53;3.90;;;20.70;93.20;;;;;;5051811;28;20401;-67
2022/05/04 09:26:24;;;;;;;5.80;5.30;;;20.20;93.20;;;;;;5051665;28;20178;-69
2022/05/04 09:29:00;;;;;;;3.90;3.57;;;20.10;93.40;;;;;;5051784;28;20185;-69
2022/05/04 09:31:30;;;;;;;3.53;3.20;;;19.90;92.40;;;;;;5051155;28;20311;-68
2022/05/04 09:33:58;;;;;;;4.67;3.73;;;19.70;92.70;;;;;;5051918;28;20395;-72
2022/05/04 09:36:34;;;;;;;4.80;3.80;;;19.60;92.90;;;;;;5051620;28;20454;-69
2022/05/04 09:44:55;;;;;;;4.33;3.50;;;19.60;92.20;;;;;;5071787;28;20492;-69
2022/05/04 09:47:21;;;;;;;4.53;3.93;;;18.60;92.70;;;;;;5071624;28;20898;-69
2022/05/04 09:49:48;;;;;;;3.93;3.53;;;19.20;92.80;;;;;;5071354;28;20934;-70
2022/05/04 09:52:15;;;;;;;4.60;3.50;;;19.30;92.30;;;;;;5071456;28;20483;-68
2022/05/04 09:54:41;;;;;;;4.40;3.80;;;18.90;93.10;;;;;;5071041;28;20444;-69
2022/05/04 09:57:07;;;;;;;3.93;3.30;;;19.40;93.80;;;;;;5071239;28;20498;-69
2022/05/04 09:59:35;;;;;;;4.50;3.60;;;20.30;92.60;;;;;;5072056;28;20484;-68
2022/05/04 10:02:03;;;;;;;5.00;3.33;;;19.90;92.50;;;;;;5071293;28;20203;-68
2022/05/04 10:04:34;;;;;;;4.33;3.50;;;19.60;92.70;;;;;;5055212;28;20918;-70
2022/05/04 10:07:00;;;;;;;4.30;3.90;;;19.30;92.90;;;;;;5055334;28;20420;-69
2022/05/04 10:09:27;;;;;;;3.33;2.83;;;19.60;92.50;;;;;;5055045;28;21046;-68
2022/05/04 10:11:57;;;;;;;6.97;6.00;;;19.40;92.60;;;;;;5055089;28;20506;-69
2022/05/04 10:14:23;;;;;;;3.97;3.67;;;19.40;92.30;;;;;;5055236;28;20409;-70
2022/05/04 10:16:51;;;;;;;5.10;4.23;;;19.50;92.30;;;;;;5057222;28;20921;-69
2022/05/04 10:19:29;;;;;;;3.43;3.13;;;19.00;92.90;;;;;;5067066;28;20939;-68
2022/05/04 10:21:58;;;;;;;3.63;2.90;;;18.90;93.10;;;;;;5075303;28;20479;-69
2022/05/04 10:24:28;;;;;;;3.70;3.00;;;19.50;94.20;;;;;;5075747;28;20971;-70
2022/05/04 10:27:03;;;;;;;3.43;2.90;;;19.50;93.00;;;;;;5075331;28;20474;-70
2022/05/04 10:32:37;;;;;;;3.17;2.77;;;19.70;92.60;;;;;;5074625;28;20927;-68
2022/05/04 10:35:27;;;;;;;5.63;2.90;;;19.70;91.80;;;;;;5073700;28;20438;-68
2022/05/04 10:37:59;;;;;;;4.00;3.60;;;19.80;91.90;;;;;;5074859;28;20399;-71
2022/05/04 10:40:31;;;;;;;3.27;2.97;;;19.80;91.70;;;;;;5074564;28;20958;-72
2022/05/04 10:42:57;;;;;;;3.37;3.03;;;20.00;90.10;;;;;;5074739;28;20399;-71
2022/05/04 10:45:28;;;;;;;5.70;3.70;;;20.10;90.10;;;;;;5074424;28;20406;-71
2022/05/04 10:48:19;;;;;;;4.40;2.70;;;20.10;89.70;;;;;;5074640;28;20416;-71
2022/05/04 10:50:55;;;;;;;4.10;3.50;;;19.70;90.60;;;;;;5074505;28;20511;-72
2022/05/04 10:53:42;;;;;;;5.50;3.33;;;20.00;91.20;;;;;;5074598;28;20892;-71
2022/05/04 10:56:09;;;;;;;4.30;3.40;;;19.80;91.00;;;;;;5074124;28;20831;-70
2022/05/04 10:58:47;;;;;;;3.50;3.20;;;19.60;91.10;;;;;;5074675;28;20921;-71
2022/05/04 11:01:20;;;;;;;3.87;2.57;;;19.40;91.40;;;;;;5074392;28;20428;-70
2022/05/04 11:04:05;;;;;;;3.03;2.80;;;19.00;91.80;;;;;;5072542;28;20500;-70
2022/05/04 11:06:33;;;;;;;3.77;3.37;;;19.20;92.20;;;;;;5074391;28;20939;-70
2022/05/04 11:09:09;;;;;;;3.17;2.87;;;19.30;91.40;;;;;;5074553;28;20742;-72
2022/05/04 11:11:36;;;;;;;3.87;3.50;;;19.10;91.50;;;;;;5073156;28;20725;-71
2022/05/04 11:14:04;;;;;;;4.27;3.80;;;19.20;91.40;;;;;;5074015;28;20974;-70
2022/05/04 11:16:31;;;;;;;3.43;3.13;;;19.20;91.80;;;;;;5074024;28;20820;-70
2022/05/04 11:19:03;;;;;;;5.60;3.10;;;19.50;91.90;;;;;;5073984;28;20905;-71
2022/05/04 11:21:30;;;;;;;3.40;3.10;;;19.70;92.60;;;;;;5074155;28;20451;-71
2022/05/04 11:24:01;;;;;;;3.60;3.00;;;19.60;91.80;;;;;;5073814;28;20402;-70
2022/05/04 11:26:35;;;;;;;3.37;2.90;;;19.30;91.90;;;;;;5073671;28;20920;-71
2022/05/04 11:29:01;;;;;;;4.93;3.13;;;19.80;91.60;;;;;;5083798;28;20407;-71
2022/05/04 11:31:26;;;;;;;4.03;3.00;;;19.90;91.80;;;;;;5073783;28;20953;-71
2022/05/04 11:33:51;;;;;;;3.30;2.80;;;20.20;91.60;;;;;;5073901;28;20661;-73
2022/05/04 11:36:19;;;;;;;4.30;3.20;;;20.30;91.30;;;;;;5073420;28;20197;-70
2022/05/04 11:38:46;;;;;;;3.17;2.83;;;19.80;91.10;;;;;;5073631;28;20615;-70
2022/05/04 11:41:11;;;;;;;3.73;2.27;;;20.00;91.10;;;;;;5073626;28;20958;-70
2022/05/04 11:43:37;;;;;;;2.63;2.40;;;20.60;91.20;;;;;;5073588;28;20447;-72
2022/05/04 11:46:06;;;;;;;2.90;2.60;;;21.20;89.80;;;;;;5073328;28;20752;-71
2022/05/04 11:48:42;;;;;;;3.83;2.80;;;21.00;89.10;;;;;;5073301;28;20228;-71
2022/05/04 11:51:08;;;;;;;2.73;2.53;;;20.70;88.90;;;;;;5073493;28;20859;-72
2022/05/04 11:53:36;;;;;;;3.40;3.10;;;20.80;89.90;;;;;;5073386;28;20428;-71
2022/05/04 11:56:04;;;;;;;4.73;2.93;;;20.50;88.00;;;;;;5071903;28;20473;-70
2022/05/04 11:58:31;;;;;;;3.10;2.80;;;19.50;89.20;;;;;;5053266;28;20469;-71
2022/05/04 12:00:57;;;;;;;2.87;2.40;;;19.80;90.10;;;;;;5053122;28;20438;-72
2022/05/04 12:03:23;;;;;;;2.73;2.20;;;19.90;87.70;;;;;;5054776;28;20466;-71
2022/05/04 12:05:50;;;;;;;3.57;3.00;;;20.20;87.60;;;;;;5053304;28;20256;-71
2022/05/04 12:08:17;;;;;;;3.27;2.97;;;20.20;88.60;;;;;;5059280;28;20889;-71
2022/05/04 12:10:42;;;;;;;2.97;2.50;;;20.00;88.00;;;;;;5072976;28;20434;-70
2022/05/04 12:13:08;;;;;;;3.90;2.80;;;20.20;89.80;;;;;;5072729;28;20468;-72
2022/05/04 12:15:34;;;;;;;4.60;2.97;;;20.50;87.10;;;;;;5072802;28;20208;-70
2022/05/04 12:18:05;;;;;;;4.23;3.23;;;20.60;86.00;;;;;;5072324;28;20206;-70
2022/05/04 12:20:34;;;;;;;2.70;2.47;;;20.50;86.00;;;;;;5072398;28;20438;-70
2022/05/04 12:23:00;;;;;;;3.80;3.40;;;20.50;86.90;;;;;;5072534;28;20409;-71
2022/05/04 12:25:27;;;;;;;4.53;3.00;;;20.80;85.40;;;;;;5072885;28;20472;-72
2022/05/04 12:27:54;;;;;;;3.07;2.77;;;20.90;85.10;;;;;;5071520;28;20779;-72
2022/05/04 12:33:09;;;;;;;3.30;3.00;;;20.20;86.90;;;;;;5052518;28;20418;-71
2022/05/04 12:35:43;;;;;;;2.90;2.03;;;20.10;87.30;;;;;;5052472;28;20464;-71
2022/05/04 12:38:13;;;;;;;3.27;2.97;;;20.40;90.00;;;;;;5052502;28;20408;-71
2022/05/04 12:40:39;;;;;;;2.50;2.23;;;20.60;88.30;;;;;;5052636;28;20435;-72
2022/05/04 12:43:05;;;;;;;2.70;2.50;;;20.80;84.60;;;;;;5052041;28;20449;-71
2022/05/04 12:45:33;;;;;;;2.47;2.27;;;20.30;83.80;;;;;;5052025;28;20817;-70
2022/05/04 12:47:59;;;;;;;3.10;2.37;;;20.70;83.70;;;;;;5055893;28;20508;-70
2022/05/04 12:50:26;;;;;;;4.13;2.73;;;21.40;84.20;;;;;;5054180;28;20573;-71
2022/05/04 12:52:52;;;;;;;2.77;2.47;;;20.90;82.20;;;;;;5072298;28;20204;-71
2022/05/04 12:55:18;;;;;;;2.67;2.50;;;20.40;84.30;;;;;;5071649;28;20465;-70
2022/05/04 12:57:44;;;;;;;2.93;2.50;;;20.50;84.40;;;;;;5057989;28;20261;-70
2022/05/04 13:00:12;;;;;;;3.47;2.77;;;20.30;84.30;;;;;;5052223;28;20171;-70
2022/05/04 13:02:42;;;;;;;2.77;2.57;;;20.10;85.90;;;;;;5053775;28;20417;-70
2022/05/04 13:05:09;;;;;;;3.63;2.27;;;20.00;84.40;;;;;;5050714;28;20922;-71
2022/05/04 13:07:35;;;;;;;2.50;2.30;;;20.20;84.60;;;;;;5051984;28;20424;-71
2022/05/04 13:10:02;;;;;;;2.67;2.20;;;20.70;84.80;;;;;;5051731;28;20420;-72
2022/05/04 13:12:27;;;;;;;2.70;2.50;;;21.00;85.60;;;;;;5051685;28;20460;-72
2022/05/04 13:14:53;;;;;;;2.63;2.40;;;21.30;84.60;;;;;;5051540;28;20467;-71
2022/05/04 13:17:18;;;;;;;2.80;2.50;;;21.30;81.90;;;;;;5051948;28;20562;-71
2022/05/04 13:19:44;;;;;;;3.70;3.27;;;20.90;81.50;;;;;;5051862;28;20187;-72
2022/05/04 13:22:09;;;;;;;4.50;3.57;;;21.00;81.80;;;;;;5051555;28;20691;-71